Time;durP1;ratioP1;P1;durP2;ratioP2;P2;SDS_P1;SDS_P2;PMS_P1;PMS_P2;Temp;Humidity;BMP_temperature;BMP_pressure;BME280_temperature;BME280_humidity;BME280_pressure;Samples;Min_cycle;Max_cycle;Signal;HPM_P1;HPM_P2
2022/10/02 00:00:30;;;;;;;0.68;0.50;;;;;;;10.07;100.00;96180.66;1014150;29;20327;-67
2022/10/02 00:01:22;;;;;;;1.33;0.65;;;;;;;10.04;100.00;96181.94;1010509;29;20264;-67
2022/10/02 00:02:15;;;;;;;1.98;0.77;;;;;;;10.06;100.00;96192.16;1035223;28;20311;-67
2022/10/02 00:02:49;;;;;;;3.28;1.05;;;;;;;10.00;100.00;96175.59;1026595;28;20266;-69
2022/10/02 00:03:22;;;;;;;4.95;0.60;;;;;;;10.02;100.00;96178.75;1022821;28;20291;-69
2022/10/02 00:03:53;;;;;;;1.75;0.70;;;;;;;10.04;100.00;96181.94;1022358;29;20262;-67
2022/10/02 00:04:32;;;;;;;3.00;0.60;;;;;;;10.05;100.00;96183.50;1030654;28;20276;-66
2022/10/02 00:05:12;;;;;;;0.50;0.50;;;;;;;10.05;100.00;96196.59;1030557;28;20022;-67
2022/10/02 00:05:45;;;;;;;0.77;0.50;;;;;;;10.06;100.00;96192.97;1016685;29;20354;-69
2022/10/02 00:06:23;;;;;;;2.53;0.85;;;;;;;10.04;100.00;96196.88;1026188;28;20290;-67
2022/10/02 00:06:55;;;;;;;3.63;0.50;;;;;;;10.05;100.00;96193.19;1025828;28;20266;-68
2022/10/02 00:07:34;;;;;;;2.63;0.70;;;;;;;10.08;100.00;96195.31;1018934;29;20271;-69
2022/10/02 00:08:08;;;;;;;1.02;0.60;;;;;;;10.08;100.00;96197.94;1022512;29;20314;-68
2022/10/02 00:08:40;;;;;;;2.90;0.82;;;;;;;10.08;100.00;96198.75;1026447;28;20812;-67
2022/10/02 00:09:16;;;;;;;5.97;0.70;;;;;;;10.06;100.00;96198.22;1022532;29;20309;-67
2022/10/02 00:09:54;;;;;;;0.63;0.50;;;;;;;10.10;100.00;96204.53;1022875;29;20674;-67
2022/10/02 00:10:28;;;;;;;0.55;0.55;;;;;;;10.04;100.00;96186.38;1030227;28;20269;-67
2022/10/02 00:11:13;;;;;;;0.73;0.50;;;;;;;10.08;100.00;96203.97;1022538;29;20270;-68
2022/10/02 00:11:44;;;;;;;0.40;0.35;;;;;;;10.10;100.00;96209.00;1022559;28;20274;-68
2022/10/02 00:12:16;;;;;;;0.95;0.43;;;;;;;10.09;100.00;96213.44;1028462;28;20688;-67
2022/10/02 00:12:47;;;;;;;1.85;0.70;;;;;;;10.08;100.00;96208.44;1022760;29;20641;-67
2022/10/02 00:13:34;;;;;;;0.95;0.43;;;;;;;10.10;100.00;96204.53;1026580;28;20812;-69
2022/10/02 00:14:04;;;;;;;3.20;0.68;;;;;;;10.08;100.00;96198.75;1026613;28;20022;-67
2022/10/02 00:14:37;;;;;;;1.13;0.32;;;;;;;10.08;100.00;96201.34;1018343;29;20838;-67
2022/10/02 00:15:17;;;;;;;1.27;0.50;;;;;;;10.06;100.00;96200.84;1018759;29;20015;-67
2022/10/02 00:15:48;;;;;;;2.50;0.40;;;;;;;10.07;100.00;96206.88;1025862;28;20278;-67
2022/10/02 00:16:29;;;;;;;2.30;0.40;;;;;;;10.08;100.00;96208.44;1030578;28;20096;-66
2022/10/02 00:16:59;;;;;;;2.58;0.60;;;;;;;10.06;100.00;96211.31;1033506;28;20430;-69
2022/10/02 00:17:36;;;;;;;4.60;0.80;;;;;;;10.07;100.00;96212.09;1034453;28;20798;-67
2022/10/02 00:18:12;;;;;;;0.95;0.50;;;;;;;10.08;100.00;96221.53;1024587;28;20166;-68
2022/10/02 00:18:43;;;;;;;2.85;0.50;;;;;;;10.05;100.00;96209.72;1026338;28;20336;-66
2022/10/02 00:19:15;;;;;;;4.53;0.55;;;;;;;10.06;100.00;96213.94;1026419;28;20277;-67
2022/10/02 00:19:45;;;;;;;2.08;1.15;;;;;;;10.07;100.00;96212.91;1026722;28;20034;-67
2022/10/02 00:20:18;;;;;;;0.80;0.30;;;;;;;10.06;100.00;96208.69;1022555;29;20283;-67
2022/10/02 00:21:03;;;;;;;4.90;0.82;;;;;;;10.08;100.00;96217.09;1022273;29;20069;-68
2022/10/02 00:21:58;;;;;;;1.13;0.70;;;;;;;10.07;100.00;96212.91;1022506;29;20269;-67
2022/10/02 00:22:48;;;;;;;1.33;0.60;;;;;;;10.08;100.00;96214.47;1023769;28;20402;-68
2022/10/02 00:23:23;;;;;;;2.47;0.70;;;;;;;10.04;100.00;96207.34;1026614;28;20250;-67
2022/10/02 00:24:00;;;;;;;1.00;0.45;;;;;;;10.05;100.00;96203.69;1018512;29;20308;-68
2022/10/02 00:24:53;;;;;;;3.53;0.77;;;;;;;10.07;100.00;96212.91;1024877;28;20302;-67
2022/10/02 00:25:38;;;;;;;1.08;0.45;;;;;;;10.08;100.00;96213.69;1034032;28;20281;-67
2022/10/02 00:26:14;;;;;;;1.88;0.73;;;;;;;10.05;100.00;96217.59;1022502;29;20277;-68
2022/10/02 00:27:01;;;;;;;1.38;0.73;;;;;;;10.06;100.00;96221.81;1022678;29;20286;-66
2022/10/02 00:27:58;;;;;;;1.58;0.65;;;;;;;10.05;100.00;96219.41;1026305;28;20274;-68
2022/10/02 00:28:37;;;;;;;3.10;0.55;;;;;;;10.05;100.00;96230.69;1032611;28;20253;-67
2022/10/02 00:29:31;;;;;;;2.55;0.68;;;;;;;9.90;100.00;96201.72;1034446;28;20288;-66
2022/10/02 00:30:04;;;;;;;1.55;0.40;;;;;;;10.05;100.00;96225.44;1026294;28;20094;-66
2022/10/02 00:31:02;;;;;;;5.00;0.80;;;;;;;10.06;100.00;96221.00;1022410;29;20267;-67
2022/10/02 00:32:01;;;;;;;1.77;0.55;;;;;;;10.05;100.00;96219.41;1022098;28;20410;-68
2022/10/02 00:33:02;;;;;;;3.15;0.60;;;;;;;10.04;100.00;96226.50;1010068;29;20273;-67
2022/10/02 00:33:58;;;;;;;2.30;0.40;;;;;;;10.03;100.00;96222.31;1018187;29;20289;-66
2022/10/02 00:34:34;;;;;;;1.10;0.70;;;;;;;10.00;100.00;96222.78;1021918;29;20258;-65
2022/10/02 00:35:17;;;;;;;1.13;0.50;;;;;;;10.01;100.00;96231.44;1021208;28;20298;-69
2022/10/02 00:36:28;;;;;;;1.02;0.40;;;;;;;10.03;100.00;96237.25;1025864;28;20250;-70
2022/10/02 00:37:07;;;;;;;1.50;0.63;;;;;;;10.03;100.00;96237.25;1029593;28;20249;-67
2022/10/02 00:37:45;;;;;;;0.40;0.40;;;;;;;10.04;100.00;96244.06;1030501;28;20504;-66
2022/10/02 00:38:43;;;;;;;1.67;0.88;;;;;;;10.05;100.00;96241.19;1022204;28;20282;-67
2022/10/02 00:39:45;;;;;;;0.88;0.60;;;;;;;10.04;100.00;96230.94;1026471;28;20285;-67
2022/10/02 00:40:38;;;;;;;1.27;0.43;;;;;;;10.02;100.00;96231.19;1030702;28;20258;-67
2022/10/02 00:41:18;;;;;;;0.40;0.40;;;;;;;10.02;100.00;96244.28;1033701;28;20327;-68
2022/10/02 00:42:30;;;;;;;2.78;0.65;;;;;;;10.02;100.00;96246.13;1022211;28;20267;-68
2022/10/02 00:43:19;;;;;;;;;;;;;;;10.01;100.00;96250.59;1014858;29;20886;-67
2022/10/02 00:44:22;;;;;;;3.58;0.90;;;;;;;9.98;100.00;96245.81;1025520;28;19902;-67
2022/10/02 00:45:30;;;;;;;0.93;0.60;;;;;;;9.98;100.00;96242.41;1023441;28;20266;-67
2022/10/02 00:46:38;;;;;;;0.70;0.40;;;;;;;9.97;100.00;96244.25;1025928;28;20266;-67
2022/10/02 00:47:35;;;;;;;4.95;0.65;;;;;;;9.95;100.00;96238.44;1021205;29;20277;-68
2022/10/02 00:48:22;;;;;;;3.83;0.60;;;;;;;9.97;100.00;96249.50;1022376;29;21677;-67
2022/10/02 00:48:53;;;;;;;8.32;0.70;;;;;;;9.97;100.00;96235.59;1026493;28;20293;-69
2022/10/02 00:49:35;;;;;;;0.90;0.68;;;;;;;10.01;100.00;96239.31;1026550;28;20289;-67
2022/10/02 00:50:25;;;;;;;1.33;0.68;;;;;;;10.01;100.00;96239.31;1028075;28;20525;-66
2022/10/02 00:51:27;;;;;;;0.77;0.55;;;;;;;10.00;100.00;96233.28;1022830;29;20718;-69
2022/10/02 00:52:31;;;;;;;1.05;0.45;;;;;;;10.01;100.00;96232.22;1026675;28;20662;-68
2022/10/02 00:53:17;;;;;;;3.28;0.90;;;;;;;10.01;100.00;96240.09;1022084;29;20274;-69
2022/10/02 00:54:08;;;;;;;0.70;0.60;;;;;;;10.03;100.00;96235.41;1021107;29;20451;-69
2022/10/02 00:55:01;;;;;;;2.78;0.57;;;;;;;10.06;100.00;96236.72;1031235;28;20258;-68
2022/10/02 00:55:45;;;;;;;2.15;2.00;;;;;;;9.98;100.00;96230.09;1036342;28;20288;-69
2022/10/02 00:56:34;;;;;;;1.75;0.77;;;;;;;9.99;100.00;96226.44;1031282;28;20312;-67
2022/10/02 00:57:10;;;;;;;3.13;0.77;;;;;;;10.05;100.00;96230.69;1030427;28;20327;-68
2022/10/02 00:58:12;;;;;;;2.28;0.68;;;;;;;9.94;100.00;96223.78;1018749;29;20315;-67
2022/10/02 00:58:57;;;;;;;3.97;0.60;;;;;;;10.06;100.00;96232.28;1020258;29;20370;-68
2022/10/02 00:59:43;;;;;;;1.80;0.40;;;;;;;10.07;100.00;96239.13;1028369;28;20258;-67
2022/10/02 01:00:18;;;;;;;2.70;0.50;;;;;;;10.06;100.00;96237.53;1032016;28;21250;-68
2022/10/02 01:00:55;;;;;;;0.70;0.47;;;;;;;10.07;100.00;96233.88;1035412;28;20253;-67
2022/10/02 01:01:48;;;;;;;2.05;0.68;;;;;;;10.07;100.00;96233.09;1023338;29;20395;-69
2022/10/02 01:02:30;;;;;;;0.40;0.40;;;;;;;10.08;100.00;96237.28;1027281;28;20356;-68
2022/10/02 01:03:10;;;;;;;1.95;1.27;;;;;;;10.07;100.00;96239.13;1020277;29;20299;-68
2022/10/02 01:03:51;;;;;;;3.05;0.40;;;;;;;10.07;100.00;96236.50;1025923;28;20263;-69
2022/10/02 01:04:32;;;;;;;1.67;0.43;;;;;;;10.07;100.00;96244.34;1035743;28;20397;-68
2022/10/02 01:05:04;;;;;;;1.75;0.63;;;;;;;10.05;100.00;96225.44;1030414;28;20310;-67
2022/10/02 01:05:35;;;;;;;0.52;0.52;;;;;;;10.00;100.00;96220.16;1025145;28;20114;-67
2022/10/02 01:06:09;;;;;;;1.75;0.77;;;;;;;9.99;100.00;96215.94;1031001;28;20262;-67
2022/10/02 01:06:39;;;;;;;1.70;0.70;;;;;;;10.08;100.00;96234.66;1026343;28;20034;-67
2022/10/02 01:07:10;;;;;;;4.93;0.80;;;;;;;9.99;100.00;96226.44;1034336;28;20265;-68
2022/10/02 01:07:41;;;;;;;1.42;0.73;;;;;;;10.07;100.00;96233.09;1030601;28;20027;-67
2022/10/02 01:08:12;;;;;;;2.67;0.65;;;;;;;10.05;100.00;96230.69;1026445;28;20094;-67
2022/10/02 01:08:42;;;;;;;0.80;0.50;;;;;;;10.08;100.00;96235.44;1026381;28;20267;-68
2022/10/02 01:09:12;;;;;;;2.88;0.80;;;;;;;10.08;100.00;96235.44;1026535;28;20027;-67
2022/10/02 01:09:43;;;;;;;4.20;0.80;;;;;;;10.07;100.00;96239.13;1034634;28;20512;-68
2022/10/02 01:10:14;;;;;;;3.47;0.65;;;;;;;10.09;100.00;96237.06;1022915;29;20162;-67
2022/10/02 01:10:44;;;;;;;4.43;0.60;;;;;;;10.10;100.00;96233.38;1022174;29;20541;-69
2022/10/02 01:11:14;;;;;;;1.15;0.70;;;;;;;10.11;100.00;96242.03;1023050;29;20046;-68
2022/10/02 01:11:45;;;;;;;3.35;0.50;;;;;;;10.10;100.00;96233.38;1022513;29;20030;-67
2022/10/02 01:12:16;;;;;;;2.58;0.50;;;;;;;10.11;100.00;96234.16;1020790;29;20032;-67
2022/10/02 01:12:47;;;;;;;4.63;1.13;;;;;;;10.12;100.00;96230.50;1022601;29;20031;-69
2022/10/02 01:13:17;;;;;;;0.68;0.60;;;;;;;10.10;100.00;96236.00;1022492;29;20525;-66
2022/10/02 01:13:47;;;;;;;2.05;0.70;;;;;;;10.10;100.00;96225.50;1030174;28;20026;-68
2022/10/02 01:14:18;;;;;;;1.63;0.45;;;;;;;10.07;100.00;96226.00;1022629;29;20028;-67
2022/10/02 01:14:48;;;;;;;0.57;0.55;;;;;;;10.13;100.00;96232.88;1026225;28;20557;-69
2022/10/02 01:15:22;;;;;;;3.50;0.70;;;;;;;10.14;100.00;96237.09;1022257;28;20062;-67
2022/10/02 01:15:54;;;;;;;0.55;0.55;;;;;;;10.09;100.00;96231.81;1029965;28;20048;-68
2022/10/02 01:16:25;;;;;;;2.22;0.88;;;;;;;10.09;100.00;96237.06;1022443;28;20565;-67
2022/10/02 01:16:55;;;;;;;5.95;0.73;;;;;;;10.14;100.00;96246.78;1022419;28;20274;-67
2022/10/02 01:17:28;;;;;;;1.98;0.70;;;;;;;10.13;100.00;96237.34;1026460;28;20474;-68
2022/10/02 01:18:01;;;;;;;0.65;0.50;;;;;;;10.13;100.00;96238.13;1018598;29;20020;-69
2022/10/02 01:18:31;;;;;;;3.15;1.20;;;;;;;10.13;100.00;96240.75;1022607;29;20301;-68
2022/10/02 01:19:01;;;;;;;3.28;0.80;;;;;;;10.13;100.00;96243.38;1022387;29;20761;-67
2022/10/02 01:19:38;;;;;;;0.55;0.55;;;;;;;10.10;100.00;96243.88;1018499;29;20034;-67
2022/10/02 01:20:18;;;;;;;3.63;0.40;;;;;;;10.14;100.00;96250.19;1026325;28;20038;-68
2022/10/02 01:20:53;;;;;;;1.25;0.65;;;;;;;10.13;100.00;96248.63;1018611;29;20690;-67
2022/10/02 01:21:31;;;;;;;5.40;1.38;;;;;;;10.14;100.00;96249.41;1024971;28;20274;-68
2022/10/02 01:22:20;;;;;;;1.75;1.10;;;;;;;10.13;100.00;96246.00;1030354;28;20333;-67
2022/10/02 01:23:15;;;;;;;0.88;0.70;;;;;;;10.15;100.00;96243.91;1034300;28;20267;-67
2022/10/02 01:23:56;;;;;;;0.73;0.40;;;;;;;10.14;100.00;96250.19;1026792;28;20300;-68
2022/10/02 01:24:48;;;;;;;6.38;0.57;;;;;;;10.13;100.00;96248.63;1033750;28;20355;-67
2022/10/02 01:25:19;;;;;;;2.58;0.75;;;;;;;10.11;100.00;96245.44;1034147;28;20379;-68
2022/10/02 01:25:49;;;;;;;1.88;0.50;;;;;;;10.07;100.00;96238.31;1034033;28;20394;-68
2022/10/02 01:26:20;;;;;;;3.67;0.60;;;;;;;10.11;100.00;96239.41;1026318;28;20057;-68
2022/10/02 01:26:50;;;;;;;11.40;0.80;;;;;;;10.09;100.00;96236.22;1038344;28;20080;-67
2022/10/02 01:27:21;;;;;;;2.92;0.65;;;;;;;10.07;100.00;96236.50;1033391;28;20645;-68
2022/10/02 01:27:52;;;;;;;1.65;0.55;;;;;;;10.06;100.00;96232.28;1026366;28;20038;-67
2022/10/02 01:28:23;;;;;;;2.13;0.65;;;;;;;10.05;100.00;96229.91;1030359;28;20273;-67
2022/10/02 01:28:53;;;;;;;0.73;0.70;;;;;;;9.94;100.00;96212.50;1030298;28;20800;-68
2022/10/02 01:29:24;;;;;;;0.50;0.45;;;;;;;10.05;100.00;96230.69;1026399;28;20038;-67
2022/10/02 01:30:11;;;;;;;0.60;0.60;;;;;;;10.06;100.00;96232.28;1025914;28;20029;-67
2022/10/02 01:30:42;;;;;;;1.30;0.88;;;;;;;10.05;100.00;96228.06;1022433;29;20107;-67
2022/10/02 01:31:14;;;;;;;2.45;0.70;;;;;;;10.05;100.00;96222.81;1018899;28;20283;-68
2022/10/02 01:31:44;;;;;;;0.85;0.60;;;;;;;10.06;100.00;96224.44;1026161;28;20768;-68
2022/10/02 01:32:16;;;;;;;0.40;0.40;;;;;;;10.07;100.00;96226.00;1034286;28;20281;-69
2022/10/02 01:32:55;;;;;;;5.32;0.60;;;;;;;10.02;100.00;96218.06;1034293;28;20018;-68
2022/10/02 01:33:26;;;;;;;2.67;0.75;;;;;;;10.02;100.00;96220.69;1034669;28;20249;-68
2022/10/02 01:33:56;;;;;;;1.20;0.70;;;;;;;10.02;100.00;96218.06;1026048;28;20429;-68
2022/10/02 01:34:27;;;;;;;1.23;0.50;;;;;;;10.02;100.00;96215.44;1026483;28;20019;-69
2022/10/02 01:34:58;;;;;;;1.40;0.65;;;;;;;10.03;100.00;96224.13;1030190;28;20022;-68
2022/10/02 01:35:30;;;;;;;1.50;0.73;;;;;;;10.08;100.00;96224.16;1033774;28;20101;-69
2022/10/02 01:36:01;;;;;;;0.80;0.60;;;;;;;10.00;100.00;96211.50;1021997;29;20290;-67
2022/10/02 01:36:31;;;;;;;1.45;1.35;;;;;;;10.07;100.00;96220.75;1022165;29;20267;-68
2022/10/02 01:37:02;;;;;;;2.05;0.50;;;;;;;10.06;100.00;96221.81;1030224;28;20030;-67
2022/10/02 01:37:34;;;;;;;1.58;0.93;;;;;;;10.05;100.00;96222.81;1026218;28;20105;-67
2022/10/02 01:38:09;;;;;;;0.25;0.25;;;;;;;10.01;100.00;96213.88;1025834;28;20065;-66
2022/10/02 01:38:40;;;;;;;1.45;0.68;;;;;;;10.04;100.00;96218.63;1022329;29;20335;-67
2022/10/02 01:39:10;;;;;;;3.88;0.63;;;;;;;10.03;100.00;96219.69;1010395;29;20386;-67
2022/10/02 01:39:41;;;;;;;1.40;0.77;;;;;;;10.02;100.00;96209.41;1018113;29;20016;-67
2022/10/02 01:40:22;;;;;;;0.80;0.68;;;;;;;10.02;100.00;96207.59;1026308;28;20026;-67
2022/10/02 01:40:53;;;;;;;1.38;0.52;;;;;;;10.02;100.00;96204.97;1014508;29;20031;-67
2022/10/02 01:41:23;;;;;;;0.40;0.40;;;;;;;10.06;100.00;96213.94;1022531;29;20706;-68
2022/10/02 01:41:54;;;;;;;1.05;0.68;;;;;;;10.06;100.00;96213.13;1030081;28;20064;-68
2022/10/02 01:42:24;;;;;;;0.80;0.38;;;;;;;10.02;100.00;96212.03;1028781;28;20038;-67
2022/10/02 01:42:58;;;;;;;1.25;0.63;;;;;;;10.04;100.00;96217.84;1034358;28;20022;-66
2022/10/02 01:43:33;;;;;;;1.38;0.68;;;;;;;10.07;100.00;96230.47;1033899;28;20544;-67
2022/10/02 01:44:03;;;;;;;3.28;0.88;;;;;;;10.05;100.00;96228.06;1034203;28;20352;-69
2022/10/02 01:44:33;;;;;;;2.45;1.27;;;;;;;10.06;100.00;96234.09;1034515;28;20328;-67
2022/10/02 01:45:05;;;;;;;1.27;0.75;;;;;;;10.01;100.00;96219.13;1028841;28;20030;-67
2022/10/02 01:45:55;;;;;;;1.73;0.43;;;;;;;10.02;100.00;96225.94;1029834;28;20433;-69
2022/10/02 01:46:36;;;;;;;2.70;0.70;;;;;;;10.05;100.00;96220.19;1026280;28;20329;-67
2022/10/02 01:47:26;;;;;;;2.63;0.60;;;;;;;10.06;100.00;96216.56;1022437;29;20023;-66
2022/10/02 01:48:26;;;;;;;0.63;0.47;;;;;;;10.10;100.00;96222.09;1018119;29;20016;-67
2022/10/02 01:49:28;;;;;;;2.55;0.70;;;;;;;10.08;100.00;96224.16;1029420;28;20117;-66
2022/10/02 01:50:14;;;;;;;3.05;0.63;;;;;;;10.08;100.00;96224.97;1029984;28;20794;-68
2022/10/02 01:50:52;;;;;;;0.60;0.50;;;;;;;10.05;100.00;96225.44;1024410;28;20405;-67
2022/10/02 01:51:53;;;;;;;0.60;0.60;;;;;;;10.05;100.00;96230.69;1022411;29;20766;-68
2022/10/02 01:52:32;;;;;;;2.72;0.65;;;;;;;10.04;100.00;96242.22;1024365;28;20255;-69
2022/10/02 01:53:25;;;;;;;0.68;0.22;;;;;;;10.04;100.00;96244.84;1030031;28;20030;-66
2022/10/02 01:54:30;;;;;;;3.30;0.50;;;;;;;10.09;100.00;96246.72;1026204;28;20809;-67
2022/10/02 01:55:16;;;;;;;1.83;0.45;;;;;;;10.07;100.00;96249.59;1026146;28;20269;-67
2022/10/02 01:55:56;;;;;;;2.78;0.70;;;;;;;10.07;100.00;96254.84;1028196;28;20265;-66
2022/10/02 01:56:36;;;;;;;1.15;0.55;;;;;;;10.09;100.00;96252.78;1028165;28;20276;-67
2022/10/02 01:57:13;;;;;;;0.85;0.75;;;;;;;10.10;100.00;96262.22;1029574;28;20364;-67
2022/10/02 01:57:59;;;;;;;3.17;0.63;;;;;;;10.15;100.00;96251.78;1030371;28;20038;-66
2022/10/02 01:58:57;;;;;;;1.73;0.80;;;;;;;10.13;100.00;96247.84;1025901;28;20293;-68
2022/10/02 01:59:42;;;;;;;0.73;0.40;;;;;;;10.08;100.00;96239.91;1026295;28;20268;-68
2022/10/02 02:00:16;;;;;;;1.23;0.60;;;;;;;10.08;100.00;96234.66;1032865;28;20799;-66
2022/10/02 02:01:09;;;;;;;2.53;0.60;;;;;;;10.06;100.00;96237.53;1030078;28;20276;-68
2022/10/02 02:01:45;;;;;;;2.10;1.15;;;;;;;10.05;100.00;96238.56;1029167;28;20681;-68
2022/10/02 02:02:29;;;;;;;1.50;0.47;;;;;;;10.09;100.00;96246.72;1030040;28;20284;-68
2022/10/02 02:03:20;;;;;;;0.43;0.43;;;;;;;10.08;100.00;96240.69;1038242;28;20264;-67
2022/10/02 02:03:53;;;;;;;2.60;0.85;;;;;;;10.09;100.00;96244.91;1038114;28;20865;-67
2022/10/02 02:04:28;;;;;;;1.80;0.90;;;;;;;10.08;100.00;96245.94;1038349;28;20705;-67
2022/10/02 02:05:10;;;;;;;0.60;0.60;;;;;;;10.12;100.00;96247.03;1030281;28;20810;-67
2022/10/02 02:05:40;;;;;;;0.40;0.32;;;;;;;10.13;100.00;96243.38;1033230;28;20776;-66
2022/10/02 02:06:48;;;;;;;1.45;0.50;;;;;;;10.17;100.00;96242.88;1034199;28;20307;-67
2022/10/02 02:07:43;;;;;;;1.00;0.52;;;;;;;10.10;100.00;96243.88;1015263;28;20668;-68
2022/10/02 02:08:30;;;;;;;1.77;0.60;;;;;;;10.15;100.00;96246.53;1029988;28;20298;-66
2022/10/02 02:09:17;;;;;;;0.68;0.50;;;;;;;10.15;100.00;96246.53;1030084;28;21146;-67
2022/10/02 02:09:53;;;;;;;3.58;0.40;;;;;;;10.15;100.00;96246.53;1026962;28;20269;-68
2022/10/02 02:10:47;;;;;;;1.55;0.98;;;;;;;10.13;100.00;96230.28;1030340;28;20685;-68
2022/10/02 02:11:18;;;;;;;0.60;0.50;;;;;;;10.15;100.00;96236.03;1030130;28;20277;-69
2022/10/02 02:12:00;;;;;;;1.00;0.57;;;;;;;10.15;100.00;96230.00;1034203;28;20321;-67
2022/10/02 02:12:39;;;;;;;1.95;0.68;;;;;;;10.14;100.00;96234.47;1030172;28;20682;-67
2022/10/02 02:13:14;;;;;;;3.28;0.60;;;;;;;10.15;100.00;96230.78;1029912;28;20273;-66
2022/10/02 02:13:48;;;;;;;2.20;0.50;;;;;;;10.09;100.00;96223.94;1025978;28;20270;-68
2022/10/02 02:14:30;;;;;;;1.42;0.30;;;;;;;10.15;100.00;96230.78;1022651;28;20353;-68
2022/10/02 02:15:05;;;;;;;0.82;0.38;;;;;;;10.11;100.00;96226.31;1026192;28;20273;-66
2022/10/02 02:15:56;;;;;;;2.20;0.65;;;;;;;10.12;100.00;96228.66;1021373;29;20345;-68
2022/10/02 02:16:30;;;;;;;2.63;0.63;;;;;;;10.16;100.00;96242.09;1018302;29;20772;-66
2022/10/02 02:17:23;;;;;;;0.30;0.30;;;;;;;10.17;100.00;96235.03;1018516;29;20039;-67
2022/10/02 02:17:53;;;;;;;0.32;0.32;;;;;;;10.18;100.00;96239.22;1032181;28;20323;-68
2022/10/02 02:18:38;;;;;;;2.83;0.50;;;;;;;10.16;100.00;96236.84;1034419;28;20279;-68
2022/10/02 02:19:28;;;;;;;2.55;0.52;;;;;;;10.18;100.00;96241.84;1022095;29;20031;-67
2022/10/02 02:19:59;;;;;;;3.95;0.80;;;;;;;10.15;100.00;96246.53;1022273;29;20801;-67
2022/10/02 02:20:42;;;;;;;4.03;0.47;;;;;;;10.15;100.00;96241.28;1030075;28;20269;-67
2022/10/02 02:21:24;;;;;;;0.40;0.40;;;;;;;10.11;100.00;96242.03;1034087;28;20260;-67
2022/10/02 02:21:57;;;;;;;0.30;0.30;;;;;;;10.14;100.00;96247.56;1021993;29;20279;-68
2022/10/02 02:22:29;;;;;;;1.00;0.38;;;;;;;10.15;100.00;96246.53;1014207;29;20275;-68
2022/10/02 02:23:05;;;;;;;0.73;0.32;;;;;;;10.16;100.00;96244.72;1016773;29;20272;-67
2022/10/02 02:23:36;;;;;;;0.63;0.40;;;;;;;10.15;100.00;96246.53;1020868;29;20366;-70
2022/10/02 02:24:09;;;;;;;1.98;1.02;;;;;;;10.14;100.00;96242.34;1021976;28;20262;-67
2022/10/02 02:24:46;;;;;;;1.33;0.70;;;;;;;10.21;100.00;96244.75;1018872;29;20036;-67
2022/10/02 02:25:23;;;;;;;0.63;0.30;;;;;;;10.18;100.00;96239.22;1026289;28;20311;-67
2022/10/02 02:25:57;;;;;;;7.30;0.82;;;;;;;10.19;100.00;96243.41;1021824;29;20282;-67
2022/10/02 02:26:27;;;;;;;1.77;0.60;;;;;;;10.12;100.00;96230.50;1034173;28;20347;-68
2022/10/02 02:26:58;;;;;;;2.00;0.38;;;;;;;10.15;100.00;96243.91;1030093;28;20265;-68
2022/10/02 02:27:31;;;;;;;2.28;0.43;;;;;;;10.11;100.00;96234.97;1025259;28;20040;-66
2022/10/02 02:28:05;;;;;;;2.50;0.95;;;;;;;10.17;100.00;96248.91;1025907;28;20582;-67
2022/10/02 02:28:35;;;;;;;0.43;0.32;;;;;;;10.17;100.00;96246.28;1025881;28;20720;-67
2022/10/02 02:29:06;;;;;;;2.00;0.65;;;;;;;10.17;100.00;96246.28;1022175;29;20266;-66
2022/10/02 02:29:36;;;;;;;6.70;0.80;;;;;;;10.18;100.00;96254.94;1021621;28;20145;-68
2022/10/02 02:30:10;;;;;;;1.33;0.60;;;;;;;10.17;100.00;96253.38;1025563;28;20022;-67
2022/10/02 02:30:43;;;;;;;3.85;0.32;;;;;;;10.17;100.00;96246.28;1026291;28;20062;-67
2022/10/02 02:31:15;;;;;;;0.30;0.30;;;;;;;10.19;100.00;96256.53;1025747;28;20264;-67
2022/10/02 02:31:50;;;;;;;0.98;0.50;;;;;;;10.19;100.00;96253.91;1025971;28;20277;-67
2022/10/02 02:32:23;;;;;;;1.40;0.60;;;;;;;10.18;100.00;96250.50;1017975;29;20275;-67
2022/10/02 02:32:55;;;;;;;4.30;0.40;;;;;;;10.19;100.00;96251.28;1021829;28;20691;-68
2022/10/02 02:33:30;;;;;;;2.05;0.82;;;;;;;10.15;100.00;96240.50;1022197;29;20262;-67
2022/10/02 02:34:02;;;;;;;2.03;0.50;;;;;;;10.18;100.00;96249.72;1030367;28;20276;-67
2022/10/02 02:34:40;;;;;;;4.22;0.50;;;;;;;10.19;100.00;96251.28;1022228;29;20262;-68
2022/10/02 02:35:17;;;;;;;1.58;0.52;;;;;;;10.18;100.00;96250.50;1016708;29;20354;-68
2022/10/02 02:35:49;;;;;;;1.05;0.50;;;;;;;10.15;100.00;96243.91;1025791;28;20273;-69
2022/10/02 02:36:24;;;;;;;2.90;0.63;;;;;;;10.15;100.00;96236.03;1018334;29;20264;-67
2022/10/02 02:36:58;;;;;;;2.08;0.40;;;;;;;10.17;100.00;96238.44;1022460;29;20293;-69
2022/10/02 02:37:30;;;;;;;2.92;0.52;;;;;;;10.15;100.00;96238.66;1018538;29;20399;-67
2022/10/02 02:38:03;;;;;;;0.95;0.65;;;;;;;10.20;100.00;96235.31;1014346;29;20304;-66
2022/10/02 02:38:39;;;;;;;0.88;0.57;;;;;;;10.20;100.00;96239.78;1026350;28;20700;-68
2022/10/02 02:39:13;;;;;;;0.82;0.32;;;;;;;10.19;100.00;96232.94;1018366;29;20313;-67
2022/10/02 02:39:50;;;;;;;8.82;0.80;;;;;;;10.19;100.00;96238.97;1018373;29;20272;-68
2022/10/02 02:40:23;;;;;;;0.60;0.30;;;;;;;10.18;100.00;96233.97;1014584;29;20280;-66
2022/10/02 02:40:59;;;;;;;1.02;0.63;;;;;;;10.21;100.00;96242.13;1028022;28;20262;-68
2022/10/02 02:41:36;;;;;;;1.25;0.60;;;;;;;10.24;100.00;96244.25;1023168;28;20273;-68
2022/10/02 02:42:07;;;;;;;2.90;0.57;;;;;;;10.28;100.00;96244.59;1018493;29;20346;-67
2022/10/02 02:42:42;;;;;;;0.68;0.45;;;;;;;10.31;100.00;96247.50;1026287;28;20285;-68
2022/10/02 02:43:23;;;;;;;1.17;0.40;;;;;;;10.33;100.00;96247.28;1034179;28;20767;-67
2022/10/02 02:44:03;;;;;;;0.90;0.40;;;;;;;10.35;100.00;96245.19;1022340;29;20270;-68
2022/10/02 02:44:48;;;;;;;4.95;1.05;;;;;;;10.34;100.00;96243.59;1026402;28;20270;-67
2022/10/02 02:45:21;;;;;;;3.90;0.63;;;;;;;10.36;100.00;96244.13;1018228;29;20082;-68
2022/10/02 02:45:54;;;;;;;3.25;0.40;;;;;;;10.37;100.00;96233.41;1030292;28;20270;-69
2022/10/02 02:46:33;;;;;;;1.05;0.50;;;;;;;10.37;100.00;96238.66;1015744;29;20282;-66
2022/10/02 02:47:11;;;;;;;3.40;0.75;;;;;;;10.34;100.00;96243.59;1018695;29;20304;-68
2022/10/02 02:47:52;;;;;;;1.00;0.50;;;;;;;10.35;100.00;96245.97;1018553;29;20271;-68
2022/10/02 02:48:38;;;;;;;4.03;0.50;;;;;;;10.36;100.00;96246.75;1027977;28;20389;-67
2022/10/02 02:49:09;;;;;;;0.82;0.50;;;;;;;10.35;100.00;96253.84;1022159;29;20258;-67
2022/10/02 02:49:57;;;;;;;1.45;0.63;;;;;;;10.37;100.00;96246.53;1022525;29;20362;-68
2022/10/02 02:50:38;;;;;;;1.58;0.63;;;;;;;10.35;100.00;96245.19;1022294;29;20302;-68
2022/10/02 02:51:10;;;;;;;;;;;;;;;10.35;100.00;96248.59;1026921;28;20286;-66
2022/10/02 02:51:41;;;;;;;2.42;0.60;;;;;;;10.34;100.00;96249.63;1031189;28;20406;-67
2022/10/02 02:52:18;;;;;;;0.50;0.50;;;;;;;10.33;100.00;96248.06;1030372;28;20258;-70
2022/10/02 02:53:03;;;;;;;2.65;0.60;;;;;;;10.31;100.00;96239.63;1026225;28;20069;-67
2022/10/02 02:53:46;;;;;;;0.30;0.30;;;;;;;10.34;100.00;96244.41;1028576;28;20298;-68
2022/10/02 02:54:21;;;;;;;1.55;0.68;;;;;;;10.40;100.00;96247.88;1030305;28;20304;-68
2022/10/02 02:54:55;;;;;;;8.20;0.50;;;;;;;10.40;100.00;96245.25;1030335;28;20276;-69
2022/10/02 02:55:31;;;;;;;2.80;0.68;;;;;;;10.39;100.00;96235.78;1017953;29;20391;-66
2022/10/02 02:56:03;;;;;;;2.20;0.30;;;;;;;10.36;100.00;96234.47;1022327;29;20271;-69
2022/10/02 02:56:33;;;;;;;3.75;0.40;;;;;;;10.37;100.00;96248.34;1030488;28;20696;-67
2022/10/02 02:57:04;;;;;;;0.45;0.43;;;;;;;10.37;100.00;96241.28;1030206;28;20262;-68
2022/10/02 02:57:54;;;;;;;1.08;0.47;;;;;;;10.39;100.00;96243.63;1030296;28;20504;-67
2022/10/02 02:58:32;;;;;;;0.85;0.45;;;;;;;10.40;100.00;96234.75;1030281;28;20533;-68
2022/10/02 02:59:08;;;;;;;0.30;0.30;;;;;;;10.41;100.00;96246.81;1030091;28;20022;-67
2022/10/02 02:59:39;;;;;;;2.75;0.70;;;;;;;10.37;100.00;96232.63;1026396;28;20027;-67
2022/10/02 03:00:09;;;;;;;1.98;0.60;;;;;;;10.36;100.00;96225.78;1022859;28;20274;-67
2022/10/02 03:00:40;;;;;;;2.35;0.70;;;;;;;10.40;100.00;96232.13;1014471;29;20024;-68
2022/10/02 03:01:10;;;;;;;3.55;0.60;;;;;;;10.43;100.00;96242.13;1022183;29;20069;-67
2022/10/02 03:01:41;;;;;;;1.83;0.55;;;;;;;10.36;100.00;96236.25;1022396;29;20027;-67